Redstone, Montana
Current Conditions -  °F | °C
As of 8:53 PM on Thursday 20 Nov 2014 (Local Time) from KOLF Reporting Station
Clear Clear  
Wind Chill: 12°   Ceiling: Unl
Heat Index: 12°   Visibility: 10mi
Dew Point:   Wind: 3mph
Humidity: 88%   Direction: 290°WNW
Pressure: 29.77"   Gusts: NA
Location:  48.82°N, 104.95°W
Report Text: KOLF 210353Z AUTO 29003KT 10SM CLR M11/M13 A2977 RMK AO2 SLP117 T11111128
Loading
Personal Weather Stations






























Interactive Weather Map New forecast layout! Learn more

10-Day Weather Forecast

Advertisements
Track Severe Weather on mobile